sensor_id;sensor_type;location;lat;lon;timestamp;P1;durP1;ratioP1;P2;durP2;ratioP2
12703;SDS011;6416;52.182;7.650;2022-12-18T00:01:00;23.77;;;15.17;;
12703;SDS011;6416;52.182;7.650;2022-12-18T00:03:26;23.90;;;14.93;;
12703;SDS011;6416;52.182;7.650;2022-12-18T00:05:52;25.80;;;16.00;;
12703;SDS011;6416;52.182;7.650;2022-12-18T00:08:17;24.23;;;16.30;;
12703;SDS011;6416;52.182;7.650;2022-12-18T00:10:43;22.97;;;15.33;;
12703;SDS011;6416;52.182;7.650;2022-12-18T00:13:10;24.87;;;15.73;;
12703;SDS011;6416;52.182;7.650;2022-12-18T00:15:37;21.23;;;14.23;;
12703;SDS011;6416;52.182;7.650;2022-12-18T00:18:03;20.33;;;14.17;;
12703;SDS011;6416;52.182;7.650;2022-12-18T00:20:29;20.87;;;14.57;;
12703;SDS011;6416;52.182;7.650;2022-12-18T00:22:55;22.80;;;14.80;;
12703;SDS011;6416;52.182;7.650;2022-12-18T00:25:21;26.57;;;17.27;;
12703;SDS011;6416;52.182;7.650;2022-12-18T00:27:47;25.47;;;17.17;;
12703;SDS011;6416;52.182;7.650;2022-12-18T00:30:13;26.33;;;17.37;;
12703;SDS011;6416;52.182;7.650;2022-12-18T00:32:39;24.57;;;16.67;;
12703;SDS011;6416;52.182;7.650;2022-12-18T00:35:05;27.13;;;18.47;;
12703;SDS011;6416;52.182;7.650;2022-12-18T00:37:33;27.47;;;17.57;;
12703;SDS011;6416;52.182;7.650;2022-12-18T00:39:58;29.07;;;18.53;;
12703;SDS011;6416;52.182;7.650;2022-12-18T00:42:24;25.40;;;17.13;;
12703;SDS011;6416;52.182;7.650;2022-12-18T00:44:49;26.47;;;16.70;;
12703;SDS011;6416;52.182;7.650;2022-12-18T00:47:15;26.83;;;17.00;;
12703;SDS011;6416;52.182;7.650;2022-12-18T00:49:40;23.43;;;16.43;;
12703;SDS011;6416;52.182;7.650;2022-12-18T00:52:06;23.80;;;15.67;;
12703;SDS011;6416;52.182;7.650;2022-12-18T00:54:31;23.80;;;16.20;;
12703;SDS011;6416;52.182;7.650;2022-12-18T00:56:56;27.00;;;16.47;;
12703;SDS011;6416;52.182;7.650;2022-12-18T00:59:22;26.10;;;16.83;;
12703;SDS011;6416;52.182;7.650;2022-12-18T01:01:47;26.17;;;17.37;;
12703;SDS011;6416;52.182;7.650;2022-12-18T01:04:13;27.83;;;18.13;;
12703;SDS011;6416;52.182;7.650;2022-12-18T01:06:39;25.53;;;16.83;;
12703;SDS011;6416;52.182;7.650;2022-12-18T01:09:05;26.20;;;17.57;;
12703;SDS011;6416;52.182;7.650;2022-12-18T01:11:30;27.10;;;18.40;;
12703;SDS011;6416;52.182;7.650;2022-12-18T01:13:56;25.23;;;17.43;;
12703;SDS011;6416;52.182;7.650;2022-12-18T01:16:24;24.33;;;16.80;;
12703;SDS011;6416;52.182;7.650;2022-12-18T01:18:52;23.17;;;16.47;;
12703;SDS011;6416;52.182;7.650;2022-12-18T01:21:18;22.97;;;15.57;;
12703;SDS011;6416;52.182;7.650;2022-12-18T01:23:44;24.20;;;16.37;;
12703;SDS011;6416;52.182;7.650;2022-12-18T01:26:12;21.63;;;14.47;;
12703;SDS011;6416;52.182;7.650;2022-12-18T01:28:39;22.97;;;15.73;;
12703;SDS011;6416;52.182;7.650;2022-12-18T01:31:12;22.63;;;15.13;;
12703;SDS011;6416;52.182;7.650;2022-12-18T01:33:41;21.20;;;14.27;;
12703;SDS011;6416;52.182;7.650;2022-12-18T01:36:06;28.63;;;17.53;;
12703;SDS011;6416;52.182;7.650;2022-12-18T01:38:32;22.87;;;16.93;;
12703;SDS011;6416;52.182;7.650;2022-12-18T01:40:59;24.33;;;17.80;;
12703;SDS011;6416;52.182;7.650;2022-12-18T01:43:41;21.50;;;16.57;;
12703;SDS011;6416;52.182;7.650;2022-12-18T01:46:08;27.50;;;16.77;;
12703;SDS011;6416;52.182;7.650;2022-12-18T01:48:34;22.77;;;15.50;;
12703;SDS011;6416;52.182;7.650;2022-12-18T01:50:59;20.73;;;14.90;;
12703;SDS011;6416;52.182;7.650;2022-12-18T01:53:25;20.70;;;15.07;;
12703;SDS011;6416;52.182;7.650;2022-12-18T01:55:52;23.13;;;15.37;;
12703;SDS011;6416;52.182;7.650;2022-12-18T01:58:27;21.23;;;14.67;;
12703;SDS011;6416;52.182;7.650;2022-12-18T02:00:57;18.47;;;12.70;;
12703;SDS011;6416;52.182;7.650;2022-12-18T02:03:23;20.60;;;14.20;;
12703;SDS011;6416;52.182;7.650;2022-12-18T02:05:58;20.63;;;13.27;;
12703;SDS011;6416;52.182;7.650;2022-12-18T02:08:34;21.03;;;13.90;;
12703;SDS011;6416;52.182;7.650;2022-12-18T02:13:34;19.33;;;14.10;;
12703;SDS011;6416;52.182;7.650;2022-12-18T02:16:16;16.80;;;12.97;;
12703;SDS011;6416;52.182;7.650;2022-12-18T02:18:50;20.30;;;14.33;;
12703;SDS011;6416;52.182;7.650;2022-12-18T02:21:36;18.30;;;14.03;;
12703;SDS011;6416;52.182;7.650;2022-12-18T02:26:59;18.07;;;13.57;;
12703;SDS011;6416;52.182;7.650;2022-12-18T02:29:44;17.17;;;12.73;;
12703;SDS011;6416;52.182;7.650;2022-12-18T02:32:23;20.13;;;13.47;;
12703;SDS011;6416;52.182;7.650;2022-12-18T02:34:52;19.57;;;13.77;;
12703;SDS011;6416;52.182;7.650;2022-12-18T02:37:21;19.23;;;12.87;;
12703;SDS011;6416;52.182;7.650;2022-12-18T02:39:48;23.70;;;14.83;;
12703;SDS011;6416;52.182;7.650;2022-12-18T02:42:14;21.87;;;14.70;;
12703;SDS011;6416;52.182;7.650;2022-12-18T02:44:42;17.57;;;12.37;;
12703;SDS011;6416;52.182;7.650;2022-12-18T02:47:09;17.97;;;13.57;;
12703;SDS011;6416;52.182;7.650;2022-12-18T02:49:40;19.87;;;13.07;;
12703;SDS011;6416;52.182;7.650;2022-12-18T02:52:42;21.60;;;13.80;;
12703;SDS011;6416;52.182;7.650;2022-12-18T02:55:36;18.47;;;13.33;;
12703;SDS011;6416;52.182;7.650;2022-12-18T03:03:49;17.17;;;11.93;;
12703;SDS011;6416;52.182;7.650;2022-12-18T03:06:24;15.50;;;11.57;;
12703;SDS011;6416;52.182;7.650;2022-12-18T03:09:07;14.63;;;11.13;;
12703;SDS011;6416;52.182;7.650;2022-12-18T03:11:45;16.13;;;11.47;;
12703;SDS011;6416;52.182;7.650;2022-12-18T03:14:15;18.23;;;11.57;;
12703;SDS011;6416;52.182;7.650;2022-12-18T03:16:42;15.07;;;12.00;;
12703;SDS011;6416;52.182;7.650;2022-12-18T03:19:16;18.07;;;12.40;;
12703;SDS011;6416;52.182;7.650;2022-12-18T03:21:52;15.30;;;11.97;;
12703;SDS011;6416;52.182;7.650;2022-12-18T03:24:20;12.33;;;10.10;;
12703;SDS011;6416;52.182;7.650;2022-12-18T03:26:48;14.77;;;10.83;;
12703;SDS011;6416;52.182;7.650;2022-12-18T03:29:18;15.97;;;11.07;;
12703;SDS011;6416;52.182;7.650;2022-12-18T03:31:49;18.40;;;12.13;;
12703;SDS011;6416;52.182;7.650;2022-12-18T03:34:21;14.53;;;10.37;;
12703;SDS011;6416;52.182;7.650;2022-12-18T03:36:51;15.93;;;12.27;;
12703;SDS011;6416;52.182;7.650;2022-12-18T03:39:17;12.47;;;10.23;;
12703;SDS011;6416;52.182;7.650;2022-12-18T03:41:43;14.20;;;9.83;;
12703;SDS011;6416;52.182;7.650;2022-12-18T03:44:14;14.37;;;10.33;;
12703;SDS011;6416;52.182;7.650;2022-12-18T03:50:17;14.07;;;9.30;;
12703;SDS011;6416;52.182;7.650;2022-12-18T03:52:52;14.83;;;11.23;;
12703;SDS011;6416;52.182;7.650;2022-12-18T03:55:25;13.27;;;9.90;;
12703;SDS011;6416;52.182;7.650;2022-12-18T03:57:52;14.07;;;10.40;;
12703;SDS011;6416;52.182;7.650;2022-12-18T04:00:19;15.50;;;11.57;;
12703;SDS011;6416;52.182;7.650;2022-12-18T04:02:47;15.70;;;10.93;;
12703;SDS011;6416;52.182;7.650;2022-12-18T04:05:16;14.03;;;10.03;;
12703;SDS011;6416;52.182;7.650;2022-12-18T04:07:42;13.40;;;9.97;;
12703;SDS011;6416;52.182;7.650;2022-12-18T04:10:11;14.07;;;9.87;;
12703;SDS011;6416;52.182;7.650;2022-12-18T04:12:38;14.07;;;10.00;;
12703;SDS011;6416;52.182;7.650;2022-12-18T04:15:04;11.87;;;9.30;;
12703;SDS011;6416;52.182;7.650;2022-12-18T04:17:30;12.27;;;9.20;;
12703;SDS011;6416;52.182;7.650;2022-12-18T04:19:55;13.37;;;8.33;;
12703;SDS011;6416;52.182;7.650;2022-12-18T04:22:21;11.40;;;9.03;;
12703;SDS011;6416;52.182;7.650;2022-12-18T04:24:46;10.87;;;8.67;;
12703;SDS011;6416;52.182;7.650;2022-12-18T04:27:12;10.93;;;8.53;;
12703;SDS011;6416;52.182;7.650;2022-12-18T04:29:37;10.63;;;8.33;;
12703;SDS011;6416;52.182;7.650;2022-12-18T04:32:03;13.10;;;8.73;;
12703;SDS011;6416;52.182;7.650;2022-12-18T04:34:28;11.03;;;7.80;;
12703;SDS011;6416;52.182;7.650;2022-12-18T04:36:54;9.10;;;7.80;;
12703;SDS011;6416;52.182;7.650;2022-12-18T04:39:19;11.97;;;8.13;;
12703;SDS011;6416;52.182;7.650;2022-12-18T04:41:45;12.23;;;8.50;;
12703;SDS011;6416;52.182;7.650;2022-12-18T04:44:10;9.70;;;7.10;;
12703;SDS011;6416;52.182;7.650;2022-12-18T04:46:36;11.03;;;7.50;;
12703;SDS011;6416;52.182;7.650;2022-12-18T04:49:01;8.67;;;6.83;;
12703;SDS011;6416;52.182;7.650;2022-12-18T04:51:27;10.17;;;7.20;;
12703;SDS011;6416;52.182;7.650;2022-12-18T04:53:53;8.70;;;6.43;;
12703;SDS011;6416;52.182;7.650;2022-12-18T04:56:18;9.53;;;6.53;;
12703;SDS011;6416;52.182;7.650;2022-12-18T04:58:44;9.07;;;6.70;;
12703;SDS011;6416;52.182;7.650;2022-12-18T05:01:10;10.70;;;6.90;;
12703;SDS011;6416;52.182;7.650;2022-12-18T05:03:37;8.53;;;6.33;;
12703;SDS011;6416;52.182;7.650;2022-12-18T05:06:03;10.07;;;6.37;;
12703;SDS011;6416;52.182;7.650;2022-12-18T05:08:30;8.20;;;6.13;;
12703;SDS011;6416;52.182;7.650;2022-12-18T05:11:02;6.37;;;5.43;;
12703;SDS011;6416;52.182;7.650;2022-12-18T05:13:33;7.50;;;5.80;;
12703;SDS011;6416;52.182;7.650;2022-12-18T05:15:59;7.17;;;5.13;;
12703;SDS011;6416;52.182;7.650;2022-12-18T05:18:25;6.37;;;5.13;;
12703;SDS011;6416;52.182;7.650;2022-12-18T05:20:51;5.70;;;4.80;;
12703;SDS011;6416;52.182;7.650;2022-12-18T05:23:17;9.37;;;6.17;;
12703;SDS011;6416;52.182;7.650;2022-12-18T05:25:46;7.47;;;5.50;;
12703;SDS011;6416;52.182;7.650;2022-12-18T05:28:26;7.70;;;5.50;;
12703;SDS011;6416;52.182;7.650;2022-12-18T05:30:53;6.37;;;5.33;;
12703;SDS011;6416;52.182;7.650;2022-12-18T05:33:20;7.00;;;5.20;;
12703;SDS011;6416;52.182;7.650;2022-12-18T05:35:51;7.27;;;4.87;;
12703;SDS011;6416;52.182;7.650;2022-12-18T05:38:21;7.10;;;5.27;;
12703;SDS011;6416;52.182;7.650;2022-12-18T05:40:47;8.67;;;5.90;;
12703;SDS011;6416;52.182;7.650;2022-12-18T05:43:13;7.33;;;5.67;;
12703;SDS011;6416;52.182;7.650;2022-12-18T05:45:38;6.70;;;5.43;;
12703;SDS011;6416;52.182;7.650;2022-12-18T05:48:05;8.83;;;5.73;;
12703;SDS011;6416;52.182;7.650;2022-12-18T05:50:33;6.83;;;5.37;;
12703;SDS011;6416;52.182;7.650;2022-12-18T05:53:00;8.10;;;5.60;;
12703;SDS011;6416;52.182;7.650;2022-12-18T05:55:25;6.47;;;5.60;;
12703;SDS011;6416;52.182;7.650;2022-12-18T05:57:50;6.23;;;5.00;;
12703;SDS011;6416;52.182;7.650;2022-12-18T06:00:16;5.23;;;4.73;;
12703;SDS011;6416;52.182;7.650;2022-12-18T06:02:42;5.40;;;4.90;;
12703;SDS011;6416;52.182;7.650;2022-12-18T06:05:10;5.50;;;4.50;;
12703;SDS011;6416;52.182;7.650;2022-12-18T06:07:36;8.53;;;5.97;;
12703;SDS011;6416;52.182;7.650;2022-12-18T06:10:01;5.97;;;5.03;;
12703;SDS011;6416;52.182;7.650;2022-12-18T06:12:27;5.87;;;4.43;;
12703;SDS011;6416;52.182;7.650;2022-12-18T06:14:53;5.47;;;4.47;;
12703;SDS011;6416;52.182;7.650;2022-12-18T06:17:18;5.53;;;4.37;;
12703;SDS011;6416;52.182;7.650;2022-12-18T06:19:43;6.53;;;5.17;;
12703;SDS011;6416;52.182;7.650;2022-12-18T06:22:09;5.27;;;4.50;;
12703;SDS011;6416;52.182;7.650;2022-12-18T06:24:34;5.60;;;4.43;;
12703;SDS011;6416;52.182;7.650;2022-12-18T06:27:00;6.73;;;4.20;;
12703;SDS011;6416;52.182;7.650;2022-12-18T06:29:25;4.80;;;4.30;;
12703;SDS011;6416;52.182;7.650;2022-12-18T06:31:51;4.23;;;3.80;;
12703;SDS011;6416;52.182;7.650;2022-12-18T06:34:16;4.90;;;4.37;;
12703;SDS011;6416;52.182;7.650;2022-12-18T06:36:42;4.60;;;3.87;;
12703;SDS011;6416;52.182;7.650;2022-12-18T06:39:07;4.53;;;4.07;;
12703;SDS011;6416;52.182;7.650;2022-12-18T06:41:32;4.67;;;4.17;;
12703;SDS011;6416;52.182;7.650;2022-12-18T06:43:58;4.63;;;4.07;;
12703;SDS011;6416;52.182;7.650;2022-12-18T06:46:23;6.20;;;4.07;;
12703;SDS011;6416;52.182;7.650;2022-12-18T06:48:49;5.60;;;4.30;;
12703;SDS011;6416;52.182;7.650;2022-12-18T06:51:16;4.50;;;3.90;;
12703;SDS011;6416;52.182;7.650;2022-12-18T06:53:42;5.30;;;3.77;;
12703;SDS011;6416;52.182;7.650;2022-12-18T06:56:07;3.97;;;3.57;;
12703;SDS011;6416;52.182;7.650;2022-12-18T06:58:33;4.67;;;4.17;;
12703;SDS011;6416;52.182;7.650;2022-12-18T07:00:59;5.97;;;4.20;;
12703;SDS011;6416;52.182;7.650;2022-12-18T07:03:25;5.73;;;4.07;;
12703;SDS011;6416;52.182;7.650;2022-12-18T07:05:50;4.70;;;3.90;;
12703;SDS011;6416;52.182;7.650;2022-12-18T07:08:16;3.60;;;3.27;;
12703;SDS011;6416;52.182;7.650;2022-12-18T07:10:44;4.37;;;3.70;;
12703;SDS011;6416;52.182;7.650;2022-12-18T07:13:10;3.87;;;3.50;;
12703;SDS011;6416;52.182;7.650;2022-12-18T07:15:35;5.00;;;3.63;;
12703;SDS011;6416;52.182;7.650;2022-12-18T07:18:01;4.97;;;4.10;;
12703;SDS011;6416;52.182;7.650;2022-12-18T07:20:26;5.20;;;3.83;;
12703;SDS011;6416;52.182;7.650;2022-12-18T07:22:52;4.63;;;3.90;;
12703;SDS011;6416;52.182;7.650;2022-12-18T07:25:17;6.50;;;5.07;;
12703;SDS011;6416;52.182;7.650;2022-12-18T07:27:43;5.03;;;4.10;;
12703;SDS011;6416;52.182;7.650;2022-12-18T07:30:08;4.03;;;3.63;;
12703;SDS011;6416;52.182;7.650;2022-12-18T07:32:34;4.27;;;3.57;;
12703;SDS011;6416;52.182;7.650;2022-12-18T07:35:00;6.83;;;4.33;;
12703;SDS011;6416;52.182;7.650;2022-12-18T07:37:25;4.87;;;3.87;;
12703;SDS011;6416;52.182;7.650;2022-12-18T07:39:51;6.80;;;4.70;;
12703;SDS011;6416;52.182;7.650;2022-12-18T07:42:16;5.60;;;3.60;;
12703;SDS011;6416;52.182;7.650;2022-12-18T07:44:42;3.40;;;3.03;;
12703;SDS011;6416;52.182;7.650;2022-12-18T07:47:08;4.33;;;3.33;;
12703;SDS011;6416;52.182;7.650;2022-12-18T07:49:33;3.87;;;3.37;;
12703;SDS011;6416;52.182;7.650;2022-12-18T07:51:59;3.33;;;3.03;;
12703;SDS011;6416;52.182;7.650;2022-12-18T07:54:24;3.40;;;3.10;;
12703;SDS011;6416;52.182;7.650;2022-12-18T07:56:50;4.20;;;3.60;;
12703;SDS011;6416;52.182;7.650;2022-12-18T07:59:16;3.07;;;2.77;;
12703;SDS011;6416;52.182;7.650;2022-12-18T08:01:42;4.10;;;3.60;;
12703;SDS011;6416;52.182;7.650;2022-12-18T08:04:08;3.87;;;3.37;;
12703;SDS011;6416;52.182;7.650;2022-12-18T08:06:33;3.70;;;3.20;;
12703;SDS011;6416;52.182;7.650;2022-12-18T08:08:59;3.80;;;3.40;;
12703;SDS011;6416;52.182;7.650;2022-12-18T08:11:25;4.03;;;3.30;;
12703;SDS011;6416;52.182;7.650;2022-12-18T08:13:52;3.73;;;3.33;;
12703;SDS011;6416;52.182;7.650;2022-12-18T08:16:18;7.07;;;3.87;;
12703;SDS011;6416;52.182;7.650;2022-12-18T08:18:44;4.40;;;3.47;;
12703;SDS011;6416;52.182;7.650;2022-12-18T08:21:14;4.50;;;3.60;;
12703;SDS011;6416;52.182;7.650;2022-12-18T08:23:44;5.63;;;3.90;;
12703;SDS011;6416;52.182;7.650;2022-12-18T08:26:13;5.77;;;4.07;;
12703;SDS011;6416;52.182;7.650;2022-12-18T08:28:38;4.83;;;3.50;;
12703;SDS011;6416;52.182;7.650;2022-12-18T08:31:05;4.57;;;3.80;;
12703;SDS011;6416;52.182;7.650;2022-12-18T08:33:31;4.77;;;3.80;;
12703;SDS011;6416;52.182;7.650;2022-12-18T08:35:57;4.13;;;3.73;;
12703;SDS011;6416;52.182;7.650;2022-12-18T08:38:23;4.50;;;3.50;;
12703;SDS011;6416;52.182;7.650;2022-12-18T08:40:49;4.60;;;3.87;;
12703;SDS011;6416;52.182;7.650;2022-12-18T08:43:18;4.83;;;3.90;;
12703;SDS011;6416;52.182;7.650;2022-12-18T08:45:44;4.83;;;4.23;;
12703;SDS011;6416;52.182;7.650;2022-12-18T08:48:09;6.50;;;4.40;;
12703;SDS011;6416;52.182;7.650;2022-12-18T08:50:35;5.53;;;4.23;;
12703;SDS011;6416;52.182;7.650;2022-12-18T08:53:01;4.70;;;4.20;;
12703;SDS011;6416;52.182;7.650;2022-12-18T08:55:26;9.07;;;6.03;;
12703;SDS011;6416;52.182;7.650;2022-12-18T08:57:52;5.20;;;4.17;;
12703;SDS011;6416;52.182;7.650;2022-12-18T09:00:17;4.80;;;4.30;;
12703;SDS011;6416;52.182;7.650;2022-12-18T09:02:43;6.33;;;3.97;;
12703;SDS011;6416;52.182;7.650;2022-12-18T09:05:08;5.43;;;4.43;;
12703;SDS011;6416;52.182;7.650;2022-12-18T09:07:34;5.87;;;4.73;;
12703;SDS011;6416;52.182;7.650;2022-12-18T09:09:59;5.03;;;4.53;;
12703;SDS011;6416;52.182;7.650;2022-12-18T09:12:25;5.10;;;4.60;;
12703;SDS011;6416;52.182;7.650;2022-12-18T09:14:50;6.67;;;4.87;;
12703;SDS011;6416;52.182;7.650;2022-12-18T09:17:16;5.67;;;4.80;;
12703;SDS011;6416;52.182;7.650;2022-12-18T09:19:41;5.70;;;5.07;;
12703;SDS011;6416;52.182;7.650;2022-12-18T09:22:08;6.13;;;4.57;;
12703;SDS011;6416;52.182;7.650;2022-12-18T09:24:33;6.53;;;5.33;;
12703;SDS011;6416;52.182;7.650;2022-12-18T09:26:59;7.83;;;5.70;;
12703;SDS011;6416;52.182;7.650;2022-12-18T09:29:24;6.93;;;5.20;;
12703;SDS011;6416;52.182;7.650;2022-12-18T09:31:49;5.40;;;4.87;;
12703;SDS011;6416;52.182;7.650;2022-12-18T09:34:15;5.93;;;5.00;;
12703;SDS011;6416;52.182;7.650;2022-12-18T09:36:41;4.67;;;4.17;;
12703;SDS011;6416;52.182;7.650;2022-12-18T09:39:06;5.37;;;4.10;;
12703;SDS011;6416;52.182;7.650;2022-12-18T09:47:12;4.37;;;3.73;;
12703;SDS011;6416;52.182;7.650;2022-12-18T09:49:45;5.40;;;4.70;;
12703;SDS011;6416;52.182;7.650;2022-12-18T09:52:17;7.10;;;6.40;;
12703;SDS011;6416;52.182;7.650;2022-12-18T09:54:59;5.90;;;5.30;;
12703;SDS011;6416;52.182;7.650;2022-12-18T09:57:28;5.03;;;4.27;;
12703;SDS011;6416;52.182;7.650;2022-12-18T10:00:04;5.00;;;4.50;;
12703;SDS011;6416;52.182;7.650;2022-12-18T10:02:44;4.70;;;4.20;;
12703;SDS011;6416;52.182;7.650;2022-12-18T10:05:17;4.40;;;4.00;;
12703;SDS011;6416;52.182;7.650;2022-12-18T10:10:50;4.70;;;4.17;;
12703;SDS011;6416;52.182;7.650;2022-12-18T10:22:17;5.97;;;5.37;;
12703;SDS011;6416;52.182;7.650;2022-12-18T10:27:28;4.23;;;3.83;;
12703;SDS011;6416;52.182;7.650;2022-12-18T10:29:55;5.93;;;4.40;;
12703;SDS011;6416;52.182;7.650;2022-12-18T10:32:23;5.23;;;4.03;;
12703;SDS011;6416;52.182;7.650;2022-12-18T10:34:52;4.90;;;4.30;;
12703;SDS011;6416;52.182;7.650;2022-12-18T10:37:21;4.70;;;4.07;;
12703;SDS011;6416;52.182;7.650;2022-12-18T10:40:06;5.63;;;4.80;;
12703;SDS011;6416;52.182;7.650;2022-12-18T10:42:33;6.03;;;4.43;;
12703;SDS011;6416;52.182;7.650;2022-12-18T10:45:01;4.97;;;4.30;;
12703;SDS011;6416;52.182;7.650;2022-12-18T10:47:29;5.83;;;4.63;;
12703;SDS011;6416;52.182;7.650;2022-12-18T10:49:54;4.87;;;4.27;;
12703;SDS011;6416;52.182;7.650;2022-12-18T10:52:21;6.00;;;4.27;;
12703;SDS011;6416;52.182;7.650;2022-12-18T10:54:55;6.13;;;5.13;;
12703;SDS011;6416;52.182;7.650;2022-12-18T10:59:56;4.67;;;4.10;;
12703;SDS011;6416;52.182;7.650;2022-12-18T11:02:36;4.83;;;4.03;;
12703;SDS011;6416;52.182;7.650;2022-12-18T11:05:19;4.57;;;3.90;;
12703;SDS011;6416;52.182;7.650;2022-12-18T11:07:52;6.53;;;5.00;;
12703;SDS011;6416;52.182;7.650;2022-12-18T11:10:18;6.10;;;4.73;;
12703;SDS011;6416;52.182;7.650;2022-12-18T11:12:44;6.67;;;4.43;;
12703;SDS011;6416;52.182;7.650;2022-12-18T11:15:29;5.20;;;3.97;;
12703;SDS011;6416;52.182;7.650;2022-12-18T11:17:55;5.83;;;4.37;;
12703;SDS011;6416;52.182;7.650;2022-12-18T11:20:42;4.60;;;3.67;;
12703;SDS011;6416;52.182;7.650;2022-12-18T11:23:10;5.93;;;4.60;;
12703;SDS011;6416;52.182;7.650;2022-12-18T11:25:38;4.77;;;3.97;;
12703;SDS011;6416;52.182;7.650;2022-12-18T11:28:05;4.60;;;4.10;;
12703;SDS011;6416;52.182;7.650;2022-12-18T11:30:50;7.50;;;5.30;;
12703;SDS011;6416;52.182;7.650;2022-12-18T11:33:37;4.87;;;4.17;;
12703;SDS011;6416;52.182;7.650;2022-12-18T11:36:05;6.60;;;5.20;;
12703;SDS011;6416;52.182;7.650;2022-12-18T11:38:35;5.30;;;4.57;;
12703;SDS011;6416;52.182;7.650;2022-12-18T11:41:23;5.23;;;4.50;;
12703;SDS011;6416;52.182;7.650;2022-12-18T11:43:59;5.70;;;4.50;;
12703;SDS011;6416;52.182;7.650;2022-12-18T11:46:32;4.83;;;3.97;;
12703;SDS011;6416;52.182;7.650;2022-12-18T11:49:13;4.43;;;4.03;;
12703;SDS011;6416;52.182;7.650;2022-12-18T11:51:50;5.33;;;4.60;;
12703;SDS011;6416;52.182;7.650;2022-12-18T11:54:17;6.37;;;4.77;;
12703;SDS011;6416;52.182;7.650;2022-12-18T11:59:57;4.20;;;3.57;;
12703;SDS011;6416;52.182;7.650;2022-12-18T12:02:42;4.63;;;4.10;;
12703;SDS011;6416;52.182;7.650;2022-12-18T12:28:01;4.82;;;3.80;;
12703;SDS011;6416;52.182;7.650;2022-12-18T12:33:58;4.33;;;3.90;;
12703;SDS011;6416;52.182;7.650;2022-12-18T12:39:37;4.10;;;3.70;;
12703;SDS011;6416;52.182;7.650;2022-12-18T12:42:05;4.23;;;3.83;;
12703;SDS011;6416;52.182;7.650;2022-12-18T12:45:01;6.43;;;4.00;;
12703;SDS011;6416;52.182;7.650;2022-12-18T12:47:33;5.00;;;3.97;;
12703;SDS011;6416;52.182;7.650;2022-12-18T12:50:04;5.80;;;4.37;;
12703;SDS011;6416;52.182;7.650;2022-12-18T12:52:38;4.77;;;4.20;;
12703;SDS011;6416;52.182;7.650;2022-12-18T13:01:23;6.55;;;5.45;;
12703;SDS011;6416;52.182;7.650;2022-12-18T13:04:12;5.20;;;4.63;;
12703;SDS011;6416;52.182;7.650;2022-12-18T13:09:31;5.47;;;3.90;;
12703;SDS011;6416;52.182;7.650;2022-12-18T13:12:01;4.57;;;4.17;;
12703;SDS011;6416;52.182;7.650;2022-12-18T13:14:36;5.60;;;4.47;;
12703;SDS011;6416;52.182;7.650;2022-12-18T13:19:48;5.00;;;4.07;;
12703;SDS011;6416;52.182;7.650;2022-12-18T13:22:44;4.80;;;4.10;;
12703;SDS011;6416;52.182;7.650;2022-12-18T13:28:23;7.20;;;5.00;;
12703;SDS011;6416;52.182;7.650;2022-12-18T13:31:09;4.57;;;3.90;;
12703;SDS011;6416;52.182;7.650;2022-12-18T13:36:45;4.57;;;3.70;;
12703;SDS011;6416;52.182;7.650;2022-12-18T13:41:44;4.60;;;3.77;;
12703;SDS011;6416;52.182;7.650;2022-12-18T13:44:24;5.63;;;4.40;;
12703;SDS011;6416;52.182;7.650;2022-12-18T13:47:24;4.53;;;3.90;;
12703;SDS011;6416;52.182;7.650;2022-12-18T13:49:58;3.77;;;3.37;;
12703;SDS011;6416;52.182;7.650;2022-12-18T13:52:25;4.93;;;4.33;;
12703;SDS011;6416;52.182;7.650;2022-12-18T13:54:53;4.60;;;4.20;;
12703;SDS011;6416;52.182;7.650;2022-12-18T13:57:29;4.10;;;3.70;;
12703;SDS011;6416;52.182;7.650;2022-12-18T13:59:57;4.10;;;3.70;;
12703;SDS011;6416;52.182;7.650;2022-12-18T14:02:24;3.50;;;3.20;;
12703;SDS011;6416;52.182;7.650;2022-12-18T14:04:51;4.37;;;3.97;;
12703;SDS011;6416;52.182;7.650;2022-12-18T14:07:19;4.63;;;3.87;;
12703;SDS011;6416;52.182;7.650;2022-12-18T14:09:50;5.50;;;3.77;;
12703;SDS011;6416;52.182;7.650;2022-12-18T14:12:19;4.50;;;3.83;;
12703;SDS011;6416;52.182;7.650;2022-12-18T14:14:49;4.60;;;3.80;;
12703;SDS011;6416;52.182;7.650;2022-12-18T14:17:16;3.97;;;3.37;;
12703;SDS011;6416;52.182;7.650;2022-12-18T14:19:44;4.00;;;3.60;;
12703;SDS011;6416;52.182;7.650;2022-12-18T14:22:22;5.57;;;4.50;;
12703;SDS011;6416;52.182;7.650;2022-12-18T14:25:04;4.40;;;3.77;;
12703;SDS011;6416;52.182;7.650;2022-12-18T14:27:43;4.20;;;3.80;;
12703;SDS011;6416;52.182;7.650;2022-12-18T14:33:03;4.03;;;3.57;;
12703;SDS011;6416;52.182;7.650;2022-12-18T14:35:31;3.20;;;2.87;;
12703;SDS011;6416;52.182;7.650;2022-12-18T14:40:41;4.47;;;3.30;;
12703;SDS011;6416;52.182;7.650;2022-12-18T14:43:10;5.40;;;4.40;;
12703;SDS011;6416;52.182;7.650;2022-12-18T14:45:40;5.23;;;3.63;;
12703;SDS011;6416;52.182;7.650;2022-12-18T14:50:54;4.43;;;3.77;;
12703;SDS011;6416;52.182;7.650;2022-12-18T14:53:23;4.83;;;4.00;;
12703;SDS011;6416;52.182;7.650;2022-12-18T14:56:10;4.73;;;3.70;;
12703;SDS011;6416;52.182;7.650;2022-12-18T14:58:37;4.80;;;3.80;;
12703;SDS011;6416;52.182;7.650;2022-12-18T15:01:02;5.00;;;4.00;;
12703;SDS011;6416;52.182;7.650;2022-12-18T15:03:28;4.67;;;3.67;;
12703;SDS011;6416;52.182;7.650;2022-12-18T15:05:54;4.00;;;3.60;;
12703;SDS011;6416;52.182;7.650;2022-12-18T15:11:28;3.60;;;3.17;;
12703;SDS011;6416;52.182;7.650;2022-12-18T15:13:57;3.83;;;3.10;;
12703;SDS011;6416;52.182;7.650;2022-12-18T15:16:23;3.43;;;3.13;;
12703;SDS011;6416;52.182;7.650;2022-12-18T15:18:49;4.37;;;3.77;;
12703;SDS011;6416;52.182;7.650;2022-12-18T15:21:18;4.03;;;3.50;;
12703;SDS011;6416;52.182;7.650;2022-12-18T15:23:49;4.23;;;3.40;;
12703;SDS011;6416;52.182;7.650;2022-12-18T15:26:16;3.73;;;3.23;;
12703;SDS011;6416;52.182;7.650;2022-12-18T15:33:45;3.87;;;3.50;;
12703;SDS011;6416;52.182;7.650;2022-12-18T15:36:16;3.60;;;3.30;;
12703;SDS011;6416;52.182;7.650;2022-12-18T15:38:52;4.57;;;4.00;;
12703;SDS011;6416;52.182;7.650;2022-12-18T15:41:19;5.10;;;4.37;;
12703;SDS011;6416;52.182;7.650;2022-12-18T15:43:46;4.80;;;4.23;;
12703;SDS011;6416;52.182;7.650;2022-12-18T15:48:47;4.47;;;3.37;;
12703;SDS011;6416;52.182;7.650;2022-12-18T15:53:47;3.80;;;3.40;;
12703;SDS011;6416;52.182;7.650;2022-12-18T15:56:15;4.03;;;3.57;;
12703;SDS011;6416;52.182;7.650;2022-12-18T15:58:41;4.47;;;3.77;;
12703;SDS011;6416;52.182;7.650;2022-12-18T16:01:07;4.43;;;3.40;;
12703;SDS011;6416;52.182;7.650;2022-12-18T16:03:34;4.63;;;3.53;;
12703;SDS011;6416;52.182;7.650;2022-12-18T16:06:00;3.50;;;3.20;;
12703;SDS011;6416;52.182;7.650;2022-12-18T16:08:25;4.93;;;3.70;;
12703;SDS011;6416;52.182;7.650;2022-12-18T16:10:51;3.57;;;3.10;;
12703;SDS011;6416;52.182;7.650;2022-12-18T16:13:16;4.97;;;4.30;;
12703;SDS011;6416;52.182;7.650;2022-12-18T16:15:44;4.50;;;3.97;;
12703;SDS011;6416;52.182;7.650;2022-12-18T16:18:10;6.40;;;4.30;;
12703;SDS011;6416;52.182;7.650;2022-12-18T16:20:35;5.77;;;4.80;;
12703;SDS011;6416;52.182;7.650;2022-12-18T16:23:02;5.47;;;4.20;;
12703;SDS011;6416;52.182;7.650;2022-12-18T16:25:28;4.30;;;3.87;;
12703;SDS011;6416;52.182;7.650;2022-12-18T16:27:54;4.37;;;3.77;;
12703;SDS011;6416;52.182;7.650;2022-12-18T16:30:21;4.37;;;3.87;;
12703;SDS011;6416;52.182;7.650;2022-12-18T16:32:48;4.90;;;4.40;;
12703;SDS011;6416;52.182;7.650;2022-12-18T16:35:14;4.10;;;3.70;;
12703;SDS011;6416;52.182;7.650;2022-12-18T16:37:41;4.30;;;3.90;;
12703;SDS011;6416;52.182;7.650;2022-12-18T16:40:08;4.63;;;4.10;;
12703;SDS011;6416;52.182;7.650;2022-12-18T16:42:36;4.40;;;4.00;;
12703;SDS011;6416;52.182;7.650;2022-12-18T16:45:03;3.67;;;3.23;;
12703;SDS011;6416;52.182;7.650;2022-12-18T16:47:29;4.57;;;4.17;;
12703;SDS011;6416;52.182;7.650;2022-12-18T16:49:54;6.43;;;4.93;;
12703;SDS011;6416;52.182;7.650;2022-12-18T16:52:20;4.87;;;4.30;;
12703;SDS011;6416;52.182;7.650;2022-12-18T16:54:46;4.87;;;4.37;;